Time;durP1;ratioP1;P1;durP2;ratioP2;P2;SDS_P1;SDS_P2;PMS_P1;PMS_P2;Temp;Humidity;BMP_temperature;BMP_pressure;BME280_temperature;BME280_humidity;BME280_pressure;Samples;Min_cycle;Max_cycle;Signal;HPM_P1;HPM_P2
2022/10/10 00:02:00;;;;;;;3.40;3.20;;;;;;;8.20;100.00;97249.19;4952016;28;20235;-55
2022/10/10 00:04:28;;;;;;;4.57;3.20;;;;;;;8.25;100.00;97247.69;4923505;28;20331;-58
2022/10/10 00:06:56;;;;;;;3.47;3.00;;;;;;;8.22;100.00;97244.56;4905423;28;20210;-58
2022/10/10 00:09:24;;;;;;;3.03;2.83;;;;;;;8.11;100.00;97246.53;4947663;28;20224;-58
2022/10/10 00:11:52;;;;;;;2.77;2.57;;;;;;;8.10;100.00;97244.09;4951173;28;20224;-57
2022/10/10 00:14:22;;;;;;;4.13;3.83;;;;;;;8.04;100.00;97244.75;4887563;28;20261;-57
2022/10/10 00:16:51;;;;;;;3.50;3.20;;;;;;;7.96;100.00;97245.59;4948213;28;20476;-53
2022/10/10 00:19:19;;;;;;;3.93;3.20;;;;;;;7.85;100.00;97225.63;4949012;28;20223;-57
2022/10/10 00:21:47;;;;;;;3.47;2.60;;;;;;;7.97;100.00;97239.31;4905328;28;20225;-58
2022/10/10 00:24:15;;;;;;;3.20;2.90;;;;;;;7.87;100.00;97242.13;4926676;28;20224;-55
2022/10/10 00:26:43;;;;;;;4.23;3.27;;;;;;;7.79;100.00;97239.47;4946924;28;20202;-57
2022/10/10 00:29:12;;;;;;;3.20;2.90;;;;;;;7.81;100.00;97243.63;4885364;28;20226;-57
2022/10/10 00:31:41;;;;;;;5.03;3.20;;;;;;;7.76;100.00;97243.25;4944524;28;20224;-57
2022/10/10 00:34:09;;;;;;;2.90;2.70;;;;;;;7.65;100.00;97240.97;4946727;28;20206;-58
2022/10/10 00:36:37;;;;;;;3.13;2.93;;;;;;;7.63;100.00;97235.03;4897796;28;21022;-58
2022/10/10 00:39:05;;;;;;;3.57;3.37;;;;;;;7.65;100.00;97225.13;4926299;28;20217;-56
2022/10/10 00:41:34;;;;;;;3.30;3.10;;;;;;;7.60;100.00;97230.09;4948441;28;20216;-55
2022/10/10 00:44:07;;;;;;;3.27;3.07;;;;;;;7.49;100.00;97239.97;4929466;28;20835;-57
2022/10/10 00:46:36;;;;;;;3.50;3.20;;;;;;;7.35;100.00;97236.16;4903726;28;20217;-52
2022/10/10 00:49:09;;;;;;;3.37;3.13;;;;;;;7.23;100.00;97230.34;4949909;28;20228;-57
2022/10/10 00:51:38;;;;;;;4.50;3.17;;;;;;;7.22;100.00;97239.25;4923210;28;20235;-58
2022/10/10 00:54:09;;;;;;;3.57;3.27;;;;;;;7.17;100.00;97232.81;4924258;28;20209;-54
2022/10/10 00:56:41;;;;;;;5.33;3.27;;;;;;;7.08;100.00;97234.63;4921972;28;20214;-58
2022/10/10 00:59:11;;;;;;;3.53;2.70;;;;;;;7.07;100.00;97232.97;4926040;28;20789;-57
2022/10/10 01:01:40;;;;;;;3.10;2.90;;;;;;;6.99;100.00;97232.91;4908016;28;20221;-57
2022/10/10 01:04:32;;;;;;;3.40;2.90;;;;;;;6.94;100.00;97239.50;4951058;28;20201;-56
2022/10/10 01:07:00;;;;;;;4.60;3.63;;;;;;;6.94;100.00;97231.59;4927346;28;20224;-58
2022/10/10 01:09:29;;;;;;;3.07;2.80;;;;;;;6.92;100.00;97238.03;4923075;28;20221;-60
2022/10/10 01:12:01;;;;;;;3.60;3.30;;;;;;;6.90;100.00;97226.81;4926681;28;20237;-55
2022/10/10 01:14:38;;;;;;;3.60;3.30;;;;;;;6.90;100.00;97227.63;4894642;28;20216;-58
2022/10/10 01:17:14;;;;;;;3.20;3.00;;;;;;;6.94;100.00;97228.16;4951026;28;20204;-56
2022/10/10 01:20:14;;;;;;;2.77;2.63;;;;;;;6.98;100.00;97226.00;4873946;28;22073;-53
2022/10/10 01:22:51;;;;;;;4.30;3.90;;;;;;;7.02;100.00;97222.09;4949075;28;20205;-57
2022/10/10 01:25:27;;;;;;;4.40;4.10;;;;;;;7.02;100.00;97222.91;4932965;28;20211;-58
2022/10/10 01:28:01;;;;;;;4.40;3.37;;;;;;;7.02;100.00;97224.72;4947882;28;20205;-56
2022/10/10 01:30:31;;;;;;;5.07;3.40;;;;;;;7.05;100.00;97222.56;4950307;28;21041;-55
2022/10/10 01:33:04;;;;;;;3.90;3.50;;;;;;;7.07;100.00;97222.44;4905571;28;21224;-56
2022/10/10 01:35:39;;;;;;;5.00;3.33;;;;;;;7.09;100.00;97217.81;4948848;28;20212;-55
2022/10/10 01:38:17;;;;;;;3.43;3.10;;;;;;;7.10;100.00;97217.63;4945910;28;20206;-56
2022/10/10 01:40:49;;;;;;;3.80;3.50;;;;;;;7.12;100.00;97219.28;4923824;28;20236;-56
2022/10/10 01:43:18;;;;;;;3.57;3.27;;;;;;;7.09;100.00;97215.19;4950506;28;20209;-56
2022/10/10 01:45:49;;;;;;;3.77;3.47;;;;;;;7.05;100.00;97211.22;4946453;28;20220;-55
2022/10/10 01:48:19;;;;;;;3.63;3.33;;;;;;;7.06;100.00;97212.88;4906794;28;20288;-57
2022/10/10 01:51:01;;;;;;;3.50;3.20;;;;;;;7.09;100.00;97215.19;4944316;28;20910;-58
2022/10/10 01:53:39;;;;;;;4.77;3.57;;;;;;;7.05;100.00;97211.22;4948116;28;20209;-57
2022/10/10 01:56:10;;;;;;;7.63;3.70;;;;;;;7.06;100.00;97202.34;4923188;28;20209;-53
2022/10/10 01:58:53;;;;;;;3.83;3.47;;;;;;;7.04;100.00;97204.31;4946429;28;20209;-57
2022/10/10 02:01:26;;;;;;;3.47;3.17;;;;;;;7.07;100.00;97203.97;4949802;28;20224;-52
2022/10/10 02:04:01;;;;;;;3.60;3.27;;;;;;;7.02;100.00;97195.75;4906591;28;21284;-58
2022/10/10 02:06:33;;;;;;;4.50;3.20;;;;;;;7.02;100.00;97203.66;4948879;28;20209;-57
2022/10/10 02:09:05;;;;;;;3.50;3.20;;;;;;;7.00;100.00;97195.06;4944571;28;20236;-58
2022/10/10 02:11:36;;;;;;;5.70;3.67;;;;;;;6.98;100.00;97197.88;4920397;28;20225;-56
2022/10/10 02:14:10;;;;;;;4.07;3.23;;;;;;;6.98;100.00;97197.03;4946676;28;20201;-55
2022/10/10 02:16:43;;;;;;;3.87;3.57;;;;;;;7.02;100.00;97185.22;4947079;28;20204;-58
2022/10/10 02:19:14;;;;;;;5.43;3.23;;;;;;;7.01;100.00;97188.78;4949175;28;20200;-56
2022/10/10 02:21:43;;;;;;;3.87;3.40;;;;;;;7.00;100.00;97195.06;4902053;28;20241;-56
2022/10/10 02:24:13;;;;;;;3.90;3.50;;;;;;;6.95;100.00;97193.72;4949632;28;20220;-59
2022/10/10 02:26:44;;;;;;;5.07;3.73;;;;;;;6.95;100.00;97195.56;4896295;28;20213;-56
2022/10/10 02:29:16;;;;;;;4.67;3.50;;;;;;;6.94;100.00;97188.63;4946460;28;20232;-58
2022/10/10 02:31:48;;;;;;;3.47;3.27;;;;;;;6.96;100.00;97197.19;4948408;28;20779;-59
2022/10/10 02:34:17;;;;;;;4.03;3.50;;;;;;;6.93;100.00;97190.44;4945751;28;20784;-59
2022/10/10 02:36:49;;;;;;;3.57;3.27;;;;;;;6.92;100.00;97191.41;4903973;28;20212;-57
2022/10/10 02:39:19;;;;;;;3.57;3.27;;;;;;;6.91;100.00;97186.31;4945571;28;20201;-56
2022/10/10 02:41:48;;;;;;;3.50;3.20;;;;;;;6.90;100.00;97189.94;4922942;28;20314;-57
2022/10/10 02:44:16;;;;;;;3.97;3.53;;;;;;;6.91;100.00;97183.69;4947327;28;20212;-59
2022/10/10 02:46:46;;;;;;;3.23;2.93;;;;;;;6.87;100.00;97185.81;4947028;28;20213;-53
2022/10/10 02:49:14;;;;;;;3.30;3.10;;;;;;;6.86;100.00;97186.78;4946879;28;20236;-56
2022/10/10 02:51:43;;;;;;;5.53;3.80;;;;;;;6.78;100.00;97177.06;4889434;28;20233;-58
2022/10/10 02:54:11;;;;;;;4.10;3.43;;;;;;;6.78;100.00;97176.25;4945060;28;20217;-56
2022/10/10 02:56:40;;;;;;;3.83;3.50;;;;;;;6.72;100.00;97180.31;4933376;28;20631;-57
2022/10/10 02:59:08;;;;;;;4.40;3.60;;;;;;;6.71;100.00;97181.31;4942308;28;20237;-56
2022/10/10 03:01:36;;;;;;;3.27;3.07;;;;;;;6.65;100.00;97176.69;4948545;28;20221;-57
2022/10/10 03:04:05;;;;;;;4.03;3.73;;;;;;;6.62;100.00;97175.19;4951863;28;20219;-56
2022/10/10 03:06:35;;;;;;;4.80;3.40;;;;;;;6.66;100.00;97176.53;4913165;28;20213;-58
2022/10/10 03:09:04;;;;;;;4.47;3.77;;;;;;;6.64;100.00;97173.25;4949619;28;21346;-57
2022/10/10 03:11:32;;;;;;;5.10;3.87;;;;;;;6.56;100.00;97169.75;4950470;28;20228;-59
2022/10/10 03:14:00;;;;;;;6.77;4.10;;;;;;;6.54;100.00;97169.09;4934104;28;20308;-57
2022/10/10 03:16:29;;;;;;;4.13;3.43;;;;;;;6.61;100.00;97181.44;4951563;28;20209;-57
2022/10/10 03:18:57;;;;;;;4.03;3.50;;;;;;;6.58;100.00;97189.66;4948740;28;21270;-59
2022/10/10 03:21:26;;;;;;;4.20;3.63;;;;;;;6.45;100.00;97189.28;4950915;28;20228;-58
2022/10/10 03:23:55;;;;;;;5.90;4.57;;;;;;;6.37;100.00;97190.06;4906205;28;20339;-57
2022/10/10 03:26:23;;;;;;;4.23;3.63;;;;;;;6.30;100.00;97197.78;4894075;28;20220;-58
2022/10/10 03:28:52;;;;;;;3.83;3.53;;;;;;;6.25;100.00;97186.91;4939956;28;20228;-57
2022/10/10 03:31:20;;;;;;;4.20;3.90;;;;;;;6.18;100.00;97197.22;4948698;28;21003;-58
2022/10/10 03:33:48;;;;;;;4.20;3.80;;;;;;;6.08;100.00;97196.50;4924929;28;21182;-58
2022/10/10 03:36:16;;;;;;;4.00;3.70;;;;;;;6.02;100.00;97190.03;4947288;28;20221;-59
2022/10/10 03:38:46;;;;;;;4.27;3.90;;;;;;;5.94;100.00;97198.66;4949126;28;20855;-56
2022/10/10 03:41:14;;;;;;;4.27;3.40;;;;;;;6.00;100.00;97191.13;4921135;28;20375;-57
2022/10/10 03:43:42;;;;;;;4.17;3.80;;;;;;;6.02;100.00;97197.94;4954001;28;21416;-58
2022/10/10 03:46:10;;;;;;;4.30;3.90;;;;;;;5.89;100.00;97192.22;4957057;28;20405;-58
2022/10/10 03:48:43;;;;;;;4.20;3.90;;;;;;;5.86;100.00;97182.84;4929088;28;22932;-56
2022/10/10 03:51:11;;;;;;;8.07;4.93;;;;;;;5.79;100.00;97192.31;4927232;28;20228;-59
2022/10/10 03:53:40;;;;;;;5.20;4.70;;;;;;;5.69;100.00;97189.78;4952149;28;20371;-58
2022/10/10 03:56:10;;;;;;;6.67;4.87;;;;;;;5.68;100.00;97192.53;4918480;28;21284;-59
2022/10/10 03:58:38;;;;;;;7.00;6.30;;;;;;;5.65;100.00;97193.69;4947086;28;20205;-59
2022/10/10 04:01:06;;;;;;;7.00;6.30;;;;;;;5.59;100.00;97181.16;4951531;28;20228;-59
2022/10/10 04:03:34;;;;;;;7.50;6.50;;;;;;;5.62;100.00;97188.75;4925831;28;20327;-57
2022/10/10 04:06:02;;;;;;;7.93;7.13;;;;;;;5.63;100.00;97193.03;4927854;28;20204;-60
2022/10/10 04:08:30;;;;;;;7.57;6.77;;;;;;;5.52;100.00;97182.75;4953572;28;22347;-58
2022/10/10 04:10:59;;;;;;;8.00;7.27;;;;;;;5.53;100.00;97192.28;4951374;28;20264;-59
2022/10/10 04:13:28;;;;;;;7.33;6.70;;;;;;;5.42;100.00;97175.75;4911318;28;21001;-57
2022/10/10 04:15:57;;;;;;;7.70;6.70;;;;;;;5.44;100.00;97186.94;4951502;28;20227;-58
2022/10/10 04:18:25;;;;;;;8.53;6.50;;;;;;;5.43;100.00;97182.66;4951080;28;20267;-58
2022/10/10 04:20:53;;;;;;;10.43;6.90;;;;;;;5.37;100.00;97191.16;4928849;28;21570;-59
2022/10/10 04:23:21;;;;;;;7.00;6.37;;;;;;;5.33;100.00;97187.19;4949355;28;20205;-59
2022/10/10 04:25:51;;;;;;;7.20;6.50;;;;;;;5.31;100.00;97189.13;4953089;28;22762;-57
2022/10/10 04:28:19;;;;;;;5.47;5.03;;;;;;;5.29;100.00;97194.53;4907554;28;20216;-57
2022/10/10 04:30:49;;;;;;;6.10;5.20;;;;;;;5.26;100.00;97175.63;4946748;28;20229;-58
2022/10/10 04:33:17;;;;;;;6.07;5.47;;;;;;;5.30;100.00;97192.75;4926210;28;20241;-58
2022/10/10 04:35:48;;;;;;;5.60;5.03;;;;;;;5.27;100.00;97185.16;4924768;28;20205;-56
2022/10/10 04:38:18;;;;;;;5.30;4.80;;;;;;;5.25;100.00;97189.75;4928476;28;20842;-57
2022/10/10 04:40:48;;;;;;;4.93;4.43;;;;;;;5.10;100.00;97176.31;4951420;28;20220;-58
2022/10/10 04:43:17;;;;;;;5.47;4.13;;;;;;;5.04;100.00;97175.94;4909606;28;20213;-60
2022/10/10 04:45:45;;;;;;;4.57;4.20;;;;;;;5.06;100.00;97188.88;4949629;28;20204;-58
2022/10/10 04:48:15;;;;;;;4.67;4.27;;;;;;;5.09;100.00;97191.22;4952723;28;20475;-59
2022/10/10 04:50:43;;;;;;;5.10;4.60;;;;;;;4.97;100.00;97190.63;4924733;28;20905;-59
2022/10/10 04:53:11;;;;;;;4.70;4.40;;;;;;;4.96;100.00;97190.75;4929013;28;20205;-59
2022/10/10 04:55:39;;;;;;;5.10;4.70;;;;;;;4.96;100.00;97190.75;4919808;28;20210;-58
2022/10/10 04:58:08;;;;;;;4.83;4.43;;;;;;;4.98;100.00;97188.81;4947856;28;20217;-61
2022/10/10 05:00:37;;;;;;;4.67;4.27;;;;;;;5.04;100.00;97183.81;4905777;28;20240;-58
2022/10/10 05:03:06;;;;;;;8.70;4.20;;;;;;;4.98;100.00;97192.28;4951318;28;20293;-59
2022/10/10 05:05:35;;;;;;;4.83;4.37;;;;;;;5.03;100.00;97199.69;4923043;28;21327;-59
2022/10/10 05:08:03;;;;;;;5.33;4.83;;;;;;;4.99;100.00;97198.34;4951858;28;20209;-59
2022/10/10 05:10:35;;;;;;;9.00;5.63;;;;;;;4.93;100.00;97205.84;4948629;28;20221;-59
2022/10/10 05:13:03;;;;;;;5.67;5.17;;;;;;;4.94;100.00;97209.31;4952289;28;20208;-55
2022/10/10 05:15:34;;;;;;;5.37;4.97;;;;;;;4.87;100.00;97206.44;4902081;28;20213;-57
2022/10/10 05:18:03;;;;;;;7.70;4.37;;;;;;;4.86;100.00;97202.16;4953208;28;20205;-56
2022/10/10 05:20:32;;;;;;;5.27;4.83;;;;;;;4.88;100.00;97209.88;4920979;28;21496;-58
